sensor_id;sensor_type;location;lat;lon;timestamp;P1;durP1;ratioP1;P2;durP2;ratioP2
9997;SDS011;5038;53.064;8.624;2023-08-07T00:00:49;7.43;;;6.80;;
9997;SDS011;5038;53.064;8.624;2023-08-07T00:03:18;7.00;;;6.40;;
9997;SDS011;5038;53.064;8.624;2023-08-07T00:05:46;7.60;;;6.73;;
9997;SDS011;5038;53.064;8.624;2023-08-07T00:08:14;7.57;;;6.80;;
9997;SDS011;5038;53.064;8.624;2023-08-07T00:10:42;7.20;;;6.50;;
9997;SDS011;5038;53.064;8.624;2023-08-07T00:13:10;6.60;;;6.10;;
9997;SDS011;5038;53.064;8.624;2023-08-07T00:15:40;9.00;;;7.00;;
9997;SDS011;5038;53.064;8.624;2023-08-07T00:18:08;7.80;;;7.10;;
9997;SDS011;5038;53.064;8.624;2023-08-07T00:20:36;8.50;;;7.00;;
9997;SDS011;5038;53.064;8.624;2023-08-07T00:23:04;7.00;;;6.10;;
9997;SDS011;5038;53.064;8.624;2023-08-07T00:25:32;7.97;;;7.17;;
9997;SDS011;5038;53.064;8.624;2023-08-07T00:28:00;8.27;;;7.47;;
9997;SDS011;5038;53.064;8.624;2023-08-07T00:30:28;8.20;;;7.40;;
9997;SDS011;5038;53.064;8.624;2023-08-07T00:32:58;10.27;;;7.30;;
9997;SDS011;5038;53.064;8.624;2023-08-07T00:35:26;8.73;;;7.70;;
9997;SDS011;5038;53.064;8.624;2023-08-07T00:37:54;9.10;;;7.90;;
9997;SDS011;5038;53.064;8.624;2023-08-07T00:40:22;8.90;;;8.10;;
9997;SDS011;5038;53.064;8.624;2023-08-07T00:42:50;8.70;;;7.90;;
9997;SDS011;5038;53.064;8.624;2023-08-07T00:45:19;7.97;;;7.37;;
9997;SDS011;5038;53.064;8.624;2023-08-07T00:47:47;10.20;;;8.17;;
9997;SDS011;5038;53.064;8.624;2023-08-07T00:50:17;9.10;;;8.30;;
9997;SDS011;5038;53.064;8.624;2023-08-07T00:52:48;16.83;;;8.60;;
9997;SDS011;5038;53.064;8.624;2023-08-07T00:55:16;13.10;;;8.63;;
9997;SDS011;5038;53.064;8.624;2023-08-07T00:57:44;9.57;;;8.50;;
9997;SDS011;5038;53.064;8.624;2023-08-07T01:00:13;9.63;;;8.57;;
9997;SDS011;5038;53.064;8.624;2023-08-07T01:02:42;10.80;;;8.70;;
9997;SDS011;5038;53.064;8.624;2023-08-07T01:05:11;10.30;;;9.10;;
9997;SDS011;5038;53.064;8.624;2023-08-07T01:07:40;15.27;;;8.47;;
9997;SDS011;5038;53.064;8.624;2023-08-07T01:10:09;9.53;;;8.63;;
9997;SDS011;5038;53.064;8.624;2023-08-07T01:12:41;9.20;;;8.40;;
9997;SDS011;5038;53.064;8.624;2023-08-07T01:15:18;10.30;;;9.40;;
9997;SDS011;5038;53.064;8.624;2023-08-07T01:17:49;9.77;;;8.87;;
9997;SDS011;5038;53.064;8.624;2023-08-07T01:20:20;9.67;;;8.77;;
9997;SDS011;5038;53.064;8.624;2023-08-07T01:22:50;9.07;;;8.13;;
9997;SDS011;5038;53.064;8.624;2023-08-07T01:25:18;10.17;;;9.37;;
9997;SDS011;5038;53.064;8.624;2023-08-07T01:27:50;9.67;;;8.60;;
9997;SDS011;5038;53.064;8.624;2023-08-07T01:30:25;9.50;;;8.60;;
9997;SDS011;5038;53.064;8.624;2023-08-07T01:32:59;8.80;;;8.10;;
9997;SDS011;5038;53.064;8.624;2023-08-07T01:35:36;9.73;;;8.70;;
9997;SDS011;5038;53.064;8.624;2023-08-07T01:38:10;9.70;;;8.70;;
9997;SDS011;5038;53.064;8.624;2023-08-07T01:40:39;9.50;;;8.50;;
9997;SDS011;5038;53.064;8.624;2023-08-07T01:43:09;9.57;;;8.77;;
9997;SDS011;5038;53.064;8.624;2023-08-07T01:45:37;9.00;;;8.20;;
9997;SDS011;5038;53.064;8.624;2023-08-07T01:48:07;9.83;;;8.70;;
9997;SDS011;5038;53.064;8.624;2023-08-07T01:50:35;9.37;;;8.53;;
9997;SDS011;5038;53.064;8.624;2023-08-07T01:53:03;10.83;;;9.43;;
9997;SDS011;5038;53.064;8.624;2023-08-07T01:55:33;9.80;;;8.60;;
9997;SDS011;5038;53.064;8.624;2023-08-07T01:58:01;10.57;;;9.50;;
9997;SDS011;5038;53.064;8.624;2023-08-07T02:00:30;10.47;;;9.30;;
9997;SDS011;5038;53.064;8.624;2023-08-07T02:02:58;10.67;;;9.57;;
9997;SDS011;5038;53.064;8.624;2023-08-07T02:05:27;10.80;;;9.80;;
9997;SDS011;5038;53.064;8.624;2023-08-07T02:07:55;10.70;;;9.70;;
9997;SDS011;5038;53.064;8.624;2023-08-07T02:10:24;9.77;;;8.83;;
9997;SDS011;5038;53.064;8.624;2023-08-07T02:12:53;11.17;;;10.00;;
9997;SDS011;5038;53.064;8.624;2023-08-07T02:15:21;10.07;;;9.23;;
9997;SDS011;5038;53.064;8.624;2023-08-07T02:17:50;10.63;;;9.63;;
9997;SDS011;5038;53.064;8.624;2023-08-07T02:20:18;10.30;;;9.30;;
9997;SDS011;5038;53.064;8.624;2023-08-07T02:22:46;11.20;;;10.10;;
9997;SDS011;5038;53.064;8.624;2023-08-07T02:25:14;11.60;;;10.60;;
9997;SDS011;5038;53.064;8.624;2023-08-07T02:27:42;11.03;;;9.93;;
9997;SDS011;5038;53.064;8.624;2023-08-07T02:30:12;10.90;;;10.00;;
9997;SDS011;5038;53.064;8.624;2023-08-07T02:32:41;11.20;;;10.10;;
9997;SDS011;5038;53.064;8.624;2023-08-07T02:35:11;11.67;;;10.50;;
9997;SDS011;5038;53.064;8.624;2023-08-07T02:37:39;12.00;;;10.90;;
9997;SDS011;5038;53.064;8.624;2023-08-07T02:40:07;12.33;;;11.13;;
9997;SDS011;5038;53.064;8.624;2023-08-07T02:42:37;12.73;;;11.53;;
9997;SDS011;5038;53.064;8.624;2023-08-07T02:45:05;12.83;;;11.53;;
9997;SDS011;5038;53.064;8.624;2023-08-07T02:47:35;11.80;;;10.70;;
9997;SDS011;5038;53.064;8.624;2023-08-07T02:50:04;11.70;;;10.70;;
9997;SDS011;5038;53.064;8.624;2023-08-07T02:52:33;11.90;;;10.73;;
9997;SDS011;5038;53.064;8.624;2023-08-07T02:55:01;11.73;;;10.53;;
9997;SDS011;5038;53.064;8.624;2023-08-07T02:57:29;12.20;;;11.20;;
9997;SDS011;5038;53.064;8.624;2023-08-07T02:59:57;13.00;;;11.83;;
9997;SDS011;5038;53.064;8.624;2023-08-07T03:02:25;12.63;;;11.47;;
9997;SDS011;5038;53.064;8.624;2023-08-07T03:04:56;13.00;;;11.70;;
9997;SDS011;5038;53.064;8.624;2023-08-07T03:07:24;13.03;;;11.87;;
9997;SDS011;5038;53.064;8.624;2023-08-07T03:09:53;14.17;;;12.77;;
9997;SDS011;5038;53.064;8.624;2023-08-07T03:12:21;13.00;;;11.90;;
9997;SDS011;5038;53.064;8.624;2023-08-07T03:14:49;12.53;;;11.23;;
9997;SDS011;5038;53.064;8.624;2023-08-07T03:17:17;12.70;;;11.40;;
9997;SDS011;5038;53.064;8.624;2023-08-07T03:19:47;11.97;;;10.77;;
9997;SDS011;5038;53.064;8.624;2023-08-07T03:22:17;12.97;;;11.57;;
9997;SDS011;5038;53.064;8.624;2023-08-07T03:24:46;11.77;;;10.67;;
9997;SDS011;5038;53.064;8.624;2023-08-07T03:27:15;10.77;;;9.90;;
9997;SDS011;5038;53.064;8.624;2023-08-07T03:29:43;9.97;;;8.97;;
9997;SDS011;5038;53.064;8.624;2023-08-07T03:32:12;9.23;;;8.43;;
9997;SDS011;5038;53.064;8.624;2023-08-07T03:34:41;8.40;;;7.60;;
9997;SDS011;5038;53.064;8.624;2023-08-07T03:37:09;8.20;;;7.40;;
9997;SDS011;5038;53.064;8.624;2023-08-07T03:39:39;8.30;;;7.70;;
9997;SDS011;5038;53.064;8.624;2023-08-07T03:42:07;8.37;;;7.60;;
9997;SDS011;5038;53.064;8.624;2023-08-07T03:44:35;8.00;;;7.30;;
9997;SDS011;5038;53.064;8.624;2023-08-07T03:47:03;9.10;;;8.20;;
9997;SDS011;5038;53.064;8.624;2023-08-07T03:49:33;8.80;;;8.17;;
9997;SDS011;5038;53.064;8.624;2023-08-07T03:52:02;8.60;;;7.70;;
9997;SDS011;5038;53.064;8.624;2023-08-07T03:54:31;8.67;;;7.90;;
9997;SDS011;5038;53.064;8.624;2023-08-07T03:57:00;7.70;;;7.10;;
9997;SDS011;5038;53.064;8.624;2023-08-07T03:59:29;8.97;;;8.27;;
9997;SDS011;5038;53.064;8.624;2023-08-07T04:01:57;8.93;;;8.13;;
9997;SDS011;5038;53.064;8.624;2023-08-07T04:04:25;10.30;;;9.07;;
9997;SDS011;5038;53.064;8.624;2023-08-07T04:06:53;8.90;;;8.20;;
9997;SDS011;5038;53.064;8.624;2023-08-07T04:09:21;7.77;;;7.13;;
9997;SDS011;5038;53.064;8.624;2023-08-07T04:11:49;7.93;;;7.13;;
9997;SDS011;5038;53.064;8.624;2023-08-07T04:14:19;7.70;;;7.07;;
9997;SDS011;5038;53.064;8.624;2023-08-07T04:16:47;8.70;;;7.73;;
9997;SDS011;5038;53.064;8.624;2023-08-07T04:19:15;7.03;;;6.33;;
9997;SDS011;5038;53.064;8.624;2023-08-07T04:21:44;7.83;;;7.03;;
9997;SDS011;5038;53.064;8.624;2023-08-07T04:24:12;8.20;;;6.83;;
9997;SDS011;5038;53.064;8.624;2023-08-07T04:26:40;7.03;;;6.17;;
9997;SDS011;5038;53.064;8.624;2023-08-07T04:29:08;9.73;;;8.10;;
9997;SDS011;5038;53.064;8.624;2023-08-07T04:31:37;7.20;;;6.50;;
9997;SDS011;5038;53.064;8.624;2023-08-07T04:34:06;8.57;;;7.17;;
9997;SDS011;5038;53.064;8.624;2023-08-07T04:36:34;6.90;;;6.30;;
9997;SDS011;5038;53.064;8.624;2023-08-07T04:39:02;7.03;;;6.30;;
9997;SDS011;5038;53.064;8.624;2023-08-07T04:41:30;7.27;;;6.60;;
9997;SDS011;5038;53.064;8.624;2023-08-07T04:43:58;6.93;;;6.23;;
9997;SDS011;5038;53.064;8.624;2023-08-07T04:46:26;5.90;;;5.40;;
9997;SDS011;5038;53.064;8.624;2023-08-07T04:48:56;7.00;;;6.30;;
9997;SDS011;5038;53.064;8.624;2023-08-07T04:51:25;7.27;;;5.63;;
9997;SDS011;5038;53.064;8.624;2023-08-07T04:53:57;6.60;;;5.90;;
9997;SDS011;5038;53.064;8.624;2023-08-07T04:56:25;5.30;;;4.87;;
9997;SDS011;5038;53.064;8.624;2023-08-07T04:58:53;6.23;;;5.63;;
9997;SDS011;5038;53.064;8.624;2023-08-07T05:01:21;5.80;;;5.30;;
9997;SDS011;5038;53.064;8.624;2023-08-07T05:03:49;8.13;;;5.97;;
9997;SDS011;5038;53.064;8.624;2023-08-07T05:06:19;7.03;;;4.60;;
9997;SDS011;5038;53.064;8.624;2023-08-07T05:08:47;5.57;;;4.17;;
9997;SDS011;5038;53.064;8.624;2023-08-07T05:11:15;4.90;;;4.30;;
9997;SDS011;5038;53.064;8.624;2023-08-07T05:13:43;5.27;;;4.80;;
9997;SDS011;5038;53.064;8.624;2023-08-07T05:16:11;6.40;;;4.57;;
9997;SDS011;5038;53.064;8.624;2023-08-07T05:18:39;3.90;;;3.50;;
9997;SDS011;5038;53.064;8.624;2023-08-07T05:21:07;5.07;;;3.93;;
9997;SDS011;5038;53.064;8.624;2023-08-07T05:23:37;4.40;;;3.90;;
9997;SDS011;5038;53.064;8.624;2023-08-07T05:26:05;4.23;;;3.80;;
9997;SDS011;5038;53.064;8.624;2023-08-07T05:28:33;5.50;;;3.80;;
9997;SDS011;5038;53.064;8.624;2023-08-07T05:31:01;3.93;;;3.50;;
9997;SDS011;5038;53.064;8.624;2023-08-07T05:33:29;6.73;;;3.60;;
9997;SDS011;5038;53.064;8.624;2023-08-07T05:35:57;6.13;;;3.57;;
9997;SDS011;5038;53.064;8.624;2023-08-07T05:38:25;4.67;;;3.07;;
9997;SDS011;5038;53.064;8.624;2023-08-07T05:40:55;6.70;;;2.93;;
9997;SDS011;5038;53.064;8.624;2023-08-07T05:43:23;5.00;;;3.27;;
9997;SDS011;5038;53.064;8.624;2023-08-07T05:45:51;7.60;;;3.00;;
9997;SDS011;5038;53.064;8.624;2023-08-07T05:48:19;4.53;;;3.03;;
9997;SDS011;5038;53.064;8.624;2023-08-07T05:50:47;3.43;;;2.97;;
9997;SDS011;5038;53.064;8.624;2023-08-07T05:53:15;6.40;;;3.27;;
9997;SDS011;5038;53.064;8.624;2023-08-07T05:55:43;6.53;;;2.70;;
9997;SDS011;5038;53.064;8.624;2023-08-07T05:58:13;3.87;;;2.83;;
9997;SDS011;5038;53.064;8.624;2023-08-07T06:00:41;7.73;;;3.60;;
9997;SDS011;5038;53.064;8.624;2023-08-07T06:03:09;4.80;;;3.53;;
9997;SDS011;5038;53.064;8.624;2023-08-07T06:05:37;5.00;;;3.23;;
9997;SDS011;5038;53.064;8.624;2023-08-07T06:08:05;8.53;;;3.57;;
9997;SDS011;5038;53.064;8.624;2023-08-07T06:10:33;6.40;;;3.67;;
9997;SDS011;5038;53.064;8.624;2023-08-07T06:13:01;5.60;;;3.13;;
9997;SDS011;5038;53.064;8.624;2023-08-07T06:15:32;9.03;;;3.80;;
9997;SDS011;5038;53.064;8.624;2023-08-07T06:18:00;9.27;;;4.87;;
9997;SDS011;5038;53.064;8.624;2023-08-07T06:20:29;6.63;;;3.37;;
9997;SDS011;5038;53.064;8.624;2023-08-07T06:22:57;6.03;;;4.70;;
9997;SDS011;5038;53.064;8.624;2023-08-07T06:25:25;6.77;;;3.63;;
9997;SDS011;5038;53.064;8.624;2023-08-07T06:27:54;7.50;;;4.20;;
9997;SDS011;5038;53.064;8.624;2023-08-07T06:30:22;6.03;;;3.57;;
9997;SDS011;5038;53.064;8.624;2023-08-07T06:32:51;6.23;;;4.00;;
9997;SDS011;5038;53.064;8.624;2023-08-07T06:35:19;5.47;;;3.20;;
9997;SDS011;5038;53.064;8.624;2023-08-07T06:37:47;8.67;;;3.83;;
9997;SDS011;5038;53.064;8.624;2023-08-07T06:40:16;6.90;;;3.60;;
9997;SDS011;5038;53.064;8.624;2023-08-07T06:42:44;7.50;;;3.77;;
9997;SDS011;5038;53.064;8.624;2023-08-07T06:45:12;6.00;;;3.50;;
9997;SDS011;5038;53.064;8.624;2023-08-07T06:47:40;4.60;;;3.10;;
9997;SDS011;5038;53.064;8.624;2023-08-07T06:50:10;4.70;;;2.30;;
9997;SDS011;5038;53.064;8.624;2023-08-07T06:52:39;3.97;;;2.57;;
9997;SDS011;5038;53.064;8.624;2023-08-07T06:55:07;4.10;;;3.17;;
9997;SDS011;5038;53.064;8.624;2023-08-07T06:57:36;6.80;;;3.40;;
9997;SDS011;5038;53.064;8.624;2023-08-07T07:00:04;6.57;;;3.37;;
9997;SDS011;5038;53.064;8.624;2023-08-07T07:02:33;6.10;;;3.30;;
9997;SDS011;5038;53.064;8.624;2023-08-07T07:05:01;6.63;;;3.53;;
9997;SDS011;5038;53.064;8.624;2023-08-07T07:07:32;7.80;;;3.43;;
9997;SDS011;5038;53.064;8.624;2023-08-07T07:10:00;7.27;;;4.27;;
9997;SDS011;5038;53.064;8.624;2023-08-07T07:12:29;7.33;;;4.10;;
9997;SDS011;5038;53.064;8.624;2023-08-07T07:14:57;7.80;;;4.10;;
9997;SDS011;5038;53.064;8.624;2023-08-07T07:17:25;9.07;;;3.90;;
9997;SDS011;5038;53.064;8.624;2023-08-07T07:19:54;12.90;;;4.60;;
9997;SDS011;5038;53.064;8.624;2023-08-07T07:22:23;8.30;;;4.20;;
9997;SDS011;5038;53.064;8.624;2023-08-07T07:24:52;9.03;;;4.40;;
9997;SDS011;5038;53.064;8.624;2023-08-07T07:27:20;10.70;;;5.20;;
9997;SDS011;5038;53.064;8.624;2023-08-07T07:29:51;9.17;;;4.40;;
9997;SDS011;5038;53.064;8.624;2023-08-07T07:32:20;10.70;;;3.97;;
9997;SDS011;5038;53.064;8.624;2023-08-07T07:34:48;9.97;;;4.30;;
9997;SDS011;5038;53.064;8.624;2023-08-07T07:37:16;8.93;;;4.60;;
9997;SDS011;5038;53.064;8.624;2023-08-07T07:39:44;8.33;;;4.00;;
9997;SDS011;5038;53.064;8.624;2023-08-07T07:42:13;8.00;;;4.03;;
9997;SDS011;5038;53.064;8.624;2023-08-07T07:44:41;8.53;;;4.10;;
9997;SDS011;5038;53.064;8.624;2023-08-07T07:47:10;8.80;;;3.80;;
9997;SDS011;5038;53.064;8.624;2023-08-07T07:49:43;7.30;;;4.00;;
9997;SDS011;5038;53.064;8.624;2023-08-07T07:52:13;9.00;;;4.80;;
9997;SDS011;5038;53.064;8.624;2023-08-07T07:54:42;12.00;;;4.27;;
9997;SDS011;5038;53.064;8.624;2023-08-07T07:57:10;7.80;;;3.80;;
9997;SDS011;5038;53.064;8.624;2023-08-07T07:59:39;9.50;;;4.70;;
9997;SDS011;5038;53.064;8.624;2023-08-07T08:02:07;11.67;;;4.80;;
9997;SDS011;5038;53.064;8.624;2023-08-07T08:04:36;9.03;;;5.00;;
9997;SDS011;5038;53.064;8.624;2023-08-07T08:07:04;10.53;;;4.20;;
9997;SDS011;5038;53.064;8.624;2023-08-07T08:09:33;7.90;;;4.23;;
9997;SDS011;5038;53.064;8.624;2023-08-07T08:12:01;11.17;;;4.00;;
9997;SDS011;5038;53.064;8.624;2023-08-07T08:14:30;8.87;;;4.40;;
9997;SDS011;5038;53.064;8.624;2023-08-07T08:17:17;9.00;;;4.20;;
9997;SDS011;5038;53.064;8.624;2023-08-07T08:19:45;11.63;;;4.40;;
9997;SDS011;5038;53.064;8.624;2023-08-07T08:22:16;7.33;;;3.57;;
9997;SDS011;5038;53.064;8.624;2023-08-07T08:24:45;6.80;;;3.63;;
9997;SDS011;5038;53.064;8.624;2023-08-07T08:27:14;9.73;;;3.90;;
9997;SDS011;5038;53.064;8.624;2023-08-07T08:29:43;10.13;;;3.83;;
9997;SDS011;5038;53.064;8.624;2023-08-07T08:32:12;12.50;;;4.97;;
9997;SDS011;5038;53.064;8.624;2023-08-07T08:34:41;8.30;;;3.30;;
9997;SDS011;5038;53.064;8.624;2023-08-07T08:37:10;6.70;;;3.50;;
9997;SDS011;5038;53.064;8.624;2023-08-07T08:39:38;9.93;;;3.97;;
9997;SDS011;5038;53.064;8.624;2023-08-07T08:42:06;9.77;;;3.83;;
9997;SDS011;5038;53.064;8.624;2023-08-07T08:44:38;9.80;;;3.73;;
9997;SDS011;5038;53.064;8.624;2023-08-07T08:47:07;9.60;;;3.40;;
9997;SDS011;5038;53.064;8.624;2023-08-07T08:49:40;5.47;;;2.77;;
9997;SDS011;5038;53.064;8.624;2023-08-07T08:52:13;8.70;;;3.27;;
9997;SDS011;5038;53.064;8.624;2023-08-07T08:54:42;7.20;;;2.83;;
9997;SDS011;5038;53.064;8.624;2023-08-07T08:57:11;6.43;;;3.00;;
9997;SDS011;5038;53.064;8.624;2023-08-07T08:59:41;6.47;;;3.20;;
9997;SDS011;5038;53.064;8.624;2023-08-07T09:02:09;7.53;;;2.90;;
9997;SDS011;5038;53.064;8.624;2023-08-07T09:04:37;8.40;;;3.13;;
9997;SDS011;5038;53.064;8.624;2023-08-07T09:07:09;7.77;;;2.77;;
9997;SDS011;5038;53.064;8.624;2023-08-07T09:09:40;7.17;;;3.57;;
9997;SDS011;5038;53.064;8.624;2023-08-07T09:12:12;7.23;;;3.10;;
9997;SDS011;5038;53.064;8.624;2023-08-07T09:14:47;6.67;;;3.13;;
9997;SDS011;5038;53.064;8.624;2023-08-07T09:17:20;6.83;;;2.77;;
9997;SDS011;5038;53.064;8.624;2023-08-07T09:19:51;10.77;;;4.40;;
9997;SDS011;5038;53.064;8.624;2023-08-07T09:22:21;9.30;;;3.93;;
9997;SDS011;5038;53.064;8.624;2023-08-07T09:24:49;7.67;;;3.90;;
9997;SDS011;5038;53.064;8.624;2023-08-07T09:27:18;8.23;;;4.57;;
9997;SDS011;5038;53.064;8.624;2023-08-07T09:29:47;6.13;;;3.40;;
9997;SDS011;5038;53.064;8.624;2023-08-07T09:32:16;10.17;;;3.80;;
9997;SDS011;5038;53.064;8.624;2023-08-07T09:34:45;7.17;;;3.90;;
9997;SDS011;5038;53.064;8.624;2023-08-07T09:37:13;7.20;;;3.33;;
9997;SDS011;5038;53.064;8.624;2023-08-07T09:39:43;6.37;;;3.70;;
9997;SDS011;5038;53.064;8.624;2023-08-07T09:42:12;11.67;;;4.00;;
9997;SDS011;5038;53.064;8.624;2023-08-07T09:44:41;7.70;;;3.70;;
9997;SDS011;5038;53.064;8.624;2023-08-07T09:47:11;7.40;;;3.27;;
9997;SDS011;5038;53.064;8.624;2023-08-07T09:49:41;9.83;;;3.77;;
9997;SDS011;5038;53.064;8.624;2023-08-07T09:52:10;7.23;;;3.17;;
9997;SDS011;5038;53.064;8.624;2023-08-07T09:54:39;9.10;;;3.60;;
9997;SDS011;5038;53.064;8.624;2023-08-07T09:57:09;5.87;;;3.43;;
9997;SDS011;5038;53.064;8.624;2023-08-07T09:59:37;9.63;;;3.63;;
9997;SDS011;5038;53.064;8.624;2023-08-07T10:02:05;8.90;;;4.13;;
9997;SDS011;5038;53.064;8.624;2023-08-07T10:04:35;9.07;;;3.33;;
9997;SDS011;5038;53.064;8.624;2023-08-07T10:07:04;4.50;;;2.20;;
9997;SDS011;5038;53.064;8.624;2023-08-07T10:09:32;6.07;;;3.17;;
9997;SDS011;5038;53.064;8.624;2023-08-07T10:12:00;7.10;;;3.20;;
9997;SDS011;5038;53.064;8.624;2023-08-07T10:14:30;6.57;;;3.27;;
9997;SDS011;5038;53.064;8.624;2023-08-07T10:16:59;6.43;;;3.20;;
9997;SDS011;5038;53.064;8.624;2023-08-07T10:19:27;7.70;;;3.37;;
9997;SDS011;5038;53.064;8.624;2023-08-07T10:21:55;5.93;;;3.03;;
9997;SDS011;5038;53.064;8.624;2023-08-07T10:24:24;8.87;;;2.80;;
9997;SDS011;5038;53.064;8.624;2023-08-07T10:26:52;6.23;;;2.90;;
9997;SDS011;5038;53.064;8.624;2023-08-07T10:29:23;6.10;;;3.10;;
9997;SDS011;5038;53.064;8.624;2023-08-07T10:31:55;5.80;;;3.10;;
9997;SDS011;5038;53.064;8.624;2023-08-07T10:34:25;7.00;;;2.80;;
9997;SDS011;5038;53.064;8.624;2023-08-07T10:36:56;3.03;;;2.17;;
9997;SDS011;5038;53.064;8.624;2023-08-07T10:39:24;4.00;;;2.20;;
9997;SDS011;5038;53.064;8.624;2023-08-07T10:41:53;5.70;;;3.53;;
9997;SDS011;5038;53.064;8.624;2023-08-07T10:44:22;5.73;;;2.60;;
9997;SDS011;5038;53.064;8.624;2023-08-07T10:46:52;6.53;;;3.40;;
9997;SDS011;5038;53.064;8.624;2023-08-07T10:49:32;7.20;;;3.23;;
9997;SDS011;5038;53.064;8.624;2023-08-07T10:52:02;6.33;;;3.30;;
9997;SDS011;5038;53.064;8.624;2023-08-07T10:54:36;6.00;;;2.90;;
9997;SDS011;5038;53.064;8.624;2023-08-07T10:57:12;7.10;;;4.10;;
9997;SDS011;5038;53.064;8.624;2023-08-07T10:59:44;4.73;;;2.50;;
9997;SDS011;5038;53.064;8.624;2023-08-07T11:02:22;5.30;;;2.63;;
9997;SDS011;5038;53.064;8.624;2023-08-07T11:04:53;6.53;;;3.40;;
9997;SDS011;5038;53.064;8.624;2023-08-07T11:07:25;5.20;;;3.00;;
9997;SDS011;5038;53.064;8.624;2023-08-07T11:09:55;8.17;;;3.13;;
9997;SDS011;5038;53.064;8.624;2023-08-07T11:12:24;7.87;;;3.30;;
9997;SDS011;5038;53.064;8.624;2023-08-07T11:14:52;7.47;;;3.00;;
9997;SDS011;5038;53.064;8.624;2023-08-07T11:17:24;10.47;;;3.70;;
9997;SDS011;5038;53.064;8.624;2023-08-07T11:19:54;7.73;;;3.87;;
9997;SDS011;5038;53.064;8.624;2023-08-07T11:22:23;8.70;;;4.20;;
9997;SDS011;5038;53.064;8.624;2023-08-07T11:24:51;11.50;;;3.87;;
9997;SDS011;5038;53.064;8.624;2023-08-07T11:27:20;6.03;;;3.63;;
9997;SDS011;5038;53.064;8.624;2023-08-07T11:29:49;6.97;;;3.70;;
9997;SDS011;5038;53.064;8.624;2023-08-07T11:32:18;8.80;;;4.40;;
9997;SDS011;5038;53.064;8.624;2023-08-07T11:34:48;7.13;;;3.90;;
9997;SDS011;5038;53.064;8.624;2023-08-07T11:37:19;7.30;;;3.90;;
9997;SDS011;5038;53.064;8.624;2023-08-07T11:39:48;8.10;;;4.00;;
9997;SDS011;5038;53.064;8.624;2023-08-07T11:42:16;5.27;;;3.40;;
9997;SDS011;5038;53.064;8.624;2023-08-07T11:44:44;8.53;;;4.30;;
9997;SDS011;5038;53.064;8.624;2023-08-07T11:47:12;8.50;;;3.87;;
9997;SDS011;5038;53.064;8.624;2023-08-07T11:49:42;4.90;;;2.87;;
9997;SDS011;5038;53.064;8.624;2023-08-07T11:52:10;7.00;;;3.10;;
9997;SDS011;5038;53.064;8.624;2023-08-07T11:54:41;9.00;;;4.43;;
9997;SDS011;5038;53.064;8.624;2023-08-07T11:57:14;11.10;;;3.63;;
9997;SDS011;5038;53.064;8.624;2023-08-07T11:59:47;6.40;;;3.50;;
9997;SDS011;5038;53.064;8.624;2023-08-07T12:02:20;5.80;;;3.20;;
9997;SDS011;5038;53.064;8.624;2023-08-07T12:04:56;6.97;;;3.90;;
9997;SDS011;5038;53.064;8.624;2023-08-07T12:07:25;5.73;;;3.50;;
9997;SDS011;5038;53.064;8.624;2023-08-07T12:10:00;7.20;;;3.10;;
9997;SDS011;5038;53.064;8.624;2023-08-07T12:12:32;6.73;;;3.40;;
9997;SDS011;5038;53.064;8.624;2023-08-07T12:15:01;7.57;;;3.57;;
9997;SDS011;5038;53.064;8.624;2023-08-07T12:17:31;5.17;;;2.70;;
9997;SDS011;5038;53.064;8.624;2023-08-07T12:19:59;7.30;;;3.30;;
9997;SDS011;5038;53.064;8.624;2023-08-07T12:22:27;7.67;;;3.43;;
9997;SDS011;5038;53.064;8.624;2023-08-07T12:24:56;6.93;;;2.70;;
9997;SDS011;5038;53.064;8.624;2023-08-07T12:27:25;7.00;;;2.93;;
9997;SDS011;5038;53.064;8.624;2023-08-07T12:29:53;5.50;;;2.40;;
9997;SDS011;5038;53.064;8.624;2023-08-07T12:32:21;5.10;;;2.70;;
9997;SDS011;5038;53.064;8.624;2023-08-07T12:34:49;4.40;;;2.37;;
9997;SDS011;5038;53.064;8.624;2023-08-07T12:37:21;4.77;;;2.60;;
9997;SDS011;5038;53.064;8.624;2023-08-07T12:39:50;5.43;;;2.53;;
9997;SDS011;5038;53.064;8.624;2023-08-07T12:42:21;6.03;;;2.17;;
9997;SDS011;5038;53.064;8.624;2023-08-07T12:44:52;4.17;;;2.20;;
9997;SDS011;5038;53.064;8.624;2023-08-07T12:47:20;4.90;;;2.73;;
9997;SDS011;5038;53.064;8.624;2023-08-07T12:49:48;4.70;;;2.70;;
9997;SDS011;5038;53.064;8.624;2023-08-07T12:52:16;5.67;;;2.47;;
9997;SDS011;5038;53.064;8.624;2023-08-07T12:54:44;7.47;;;3.17;;
9997;SDS011;5038;53.064;8.624;2023-08-07T12:57:12;5.60;;;2.93;;
9997;SDS011;5038;53.064;8.624;2023-08-07T12:59:40;7.47;;;2.97;;
9997;SDS011;5038;53.064;8.624;2023-08-07T13:02:10;5.43;;;2.90;;
9997;SDS011;5038;53.064;8.624;2023-08-07T13:04:38;4.20;;;2.50;;
9997;SDS011;5038;53.064;8.624;2023-08-07T13:07:06;7.30;;;3.70;;
9997;SDS011;5038;53.064;8.624;2023-08-07T13:09:34;5.77;;;2.97;;
9997;SDS011;5038;53.064;8.624;2023-08-07T13:12:02;9.73;;;3.60;;
9997;SDS011;5038;53.064;8.624;2023-08-07T13:14:31;8.67;;;3.27;;
9997;SDS011;5038;53.064;8.624;2023-08-07T13:16:59;8.83;;;3.00;;
9997;SDS011;5038;53.064;8.624;2023-08-07T13:19:29;6.93;;;3.60;;
9997;SDS011;5038;53.064;8.624;2023-08-07T13:21:57;7.30;;;3.40;;
9997;SDS011;5038;53.064;8.624;2023-08-07T13:24:25;7.17;;;2.77;;
9997;SDS011;5038;53.064;8.624;2023-08-07T13:26:53;5.73;;;2.73;;
9997;SDS011;5038;53.064;8.624;2023-08-07T13:29:21;8.80;;;4.07;;
9997;SDS011;5038;53.064;8.624;2023-08-07T13:31:51;3.83;;;2.50;;
9997;SDS011;5038;53.064;8.624;2023-08-07T13:34:19;3.93;;;2.53;;
9997;SDS011;5038;53.064;8.624;2023-08-07T13:36:49;5.70;;;3.47;;
9997;SDS011;5038;53.064;8.624;2023-08-07T13:39:17;5.57;;;2.97;;
9997;SDS011;5038;53.064;8.624;2023-08-07T13:41:45;7.43;;;3.47;;
9997;SDS011;5038;53.064;8.624;2023-08-07T13:44:13;5.70;;;3.00;;
9997;SDS011;5038;53.064;8.624;2023-08-07T13:46:43;7.47;;;3.20;;
9997;SDS011;5038;53.064;8.624;2023-08-07T13:49:11;6.93;;;3.10;;
9997;SDS011;5038;53.064;8.624;2023-08-07T13:51:40;8.10;;;3.00;;
9997;SDS011;5038;53.064;8.624;2023-08-07T13:54:09;5.43;;;2.83;;
9997;SDS011;5038;53.064;8.624;2023-08-07T13:56:37;4.20;;;2.43;;
9997;SDS011;5038;53.064;8.624;2023-08-07T13:59:05;7.20;;;3.20;;
9997;SDS011;5038;53.064;8.624;2023-08-07T14:01:34;5.67;;;2.30;;
9997;SDS011;5038;53.064;8.624;2023-08-07T14:04:03;7.27;;;2.80;;
9997;SDS011;5038;53.064;8.624;2023-08-07T14:06:31;6.53;;;2.03;;
9997;SDS011;5038;53.064;8.624;2023-08-07T14:08:59;6.17;;;2.80;;
9997;SDS011;5038;53.064;8.624;2023-08-07T14:11:28;5.30;;;2.73;;
9997;SDS011;5038;53.064;8.624;2023-08-07T14:13:57;4.87;;;2.73;;
9997;SDS011;5038;53.064;8.624;2023-08-07T14:16:25;9.87;;;3.60;;
9997;SDS011;5038;53.064;8.624;2023-08-07T14:18:53;7.33;;;3.10;;
9997;SDS011;5038;53.064;8.624;2023-08-07T14:21:21;5.53;;;3.20;;
9997;SDS011;5038;53.064;8.624;2023-08-07T14:23:50;7.30;;;3.20;;
9997;SDS011;5038;53.064;8.624;2023-08-07T14:26:18;5.10;;;2.80;;
9997;SDS011;5038;53.064;8.624;2023-08-07T14:28:48;6.63;;;3.30;;
9997;SDS011;5038;53.064;8.624;2023-08-07T14:31:16;5.37;;;2.77;;
9997;SDS011;5038;53.064;8.624;2023-08-07T14:33:44;5.03;;;2.93;;
9997;SDS011;5038;53.064;8.624;2023-08-07T14:36:12;4.93;;;2.97;;
9997;SDS011;5038;53.064;8.624;2023-08-07T14:38:41;5.13;;;2.93;;
9997;SDS011;5038;53.064;8.624;2023-08-07T14:41:09;4.80;;;2.40;;
9997;SDS011;5038;53.064;8.624;2023-08-07T14:43:37;4.33;;;2.67;;
9997;SDS011;5038;53.064;8.624;2023-08-07T14:46:06;4.67;;;3.10;;
9997;SDS011;5038;53.064;8.624;2023-08-07T14:48:35;4.30;;;2.00;;
9997;SDS011;5038;53.064;8.624;2023-08-07T14:51:03;5.73;;;2.30;;
9997;SDS011;5038;53.064;8.624;2023-08-07T14:53:31;4.30;;;2.53;;
9997;SDS011;5038;53.064;8.624;2023-08-07T14:56:01;3.53;;;2.00;;
9997;SDS011;5038;53.064;8.624;2023-08-07T14:58:29;5.97;;;2.30;;
9997;SDS011;5038;53.064;8.624;2023-08-07T15:00:58;4.97;;;2.67;;
9997;SDS011;5038;53.064;8.624;2023-08-07T15:03:28;6.00;;;2.73;;
9997;SDS011;5038;53.064;8.624;2023-08-07T15:05:56;4.53;;;2.30;;
9997;SDS011;5038;53.064;8.624;2023-08-07T15:08:25;5.23;;;2.00;;
9997;SDS011;5038;53.064;8.624;2023-08-07T15:10:53;2.57;;;1.93;;
9997;SDS011;5038;53.064;8.624;2023-08-07T15:13:21;2.77;;;2.20;;
9997;SDS011;5038;53.064;8.624;2023-08-07T15:15:49;8.47;;;2.07;;
9997;SDS011;5038;53.064;8.624;2023-08-07T15:18:17;6.57;;;2.57;;
9997;SDS011;5038;53.064;8.624;2023-08-07T15:20:47;5.53;;;2.50;;
9997;SDS011;5038;53.064;8.624;2023-08-07T15:23:16;5.20;;;2.20;;